createdAt,value
2019-04-22T00:00:17.997Z,60.30
2019-04-22T00:02:51.581Z,59.90
2019-04-22T00:05:41.462Z,59.30
2019-04-22T00:08:10.319Z,58.60
2019-04-22T00:10:48.713Z,58.00
2019-04-22T00:13:18.591Z,57.60
2019-04-22T00:15:42.423Z,57.20
2019-04-22T00:18:28.249Z,56.80
2019-04-22T00:20:54.523Z,56.50
2019-04-22T00:23:21.285Z,57.00
2019-04-22T00:25:56.067Z,56.10
2019-04-22T00:28:25.023Z,56.00
2019-04-22T00:30:57.551Z,55.80
2019-04-22T00:33:24.472Z,55.60
2019-04-22T00:35:55.170Z,55.50
2019-04-22T00:38:33.844Z,55.50
2019-04-22T00:41:00.812Z,55.40
2019-04-22T00:43:35.965Z,55.30
2019-04-22T00:46:02.735Z,55.20
2019-04-22T00:48:38.596Z,55.90
2019-04-22T00:51:05.799Z,55.40
2019-04-22T00:53:36.032Z,55.50
2019-04-22T00:56:13.804Z,55.60
2019-04-22T00:58:41.299Z,55.80
2019-04-22T01:03:50.270Z,56.20
2019-04-22T01:06:17.321Z,56.40
2019-04-22T01:08:53.711Z,56.70
2019-04-22T01:11:23.072Z,57.20
2019-04-22T01:13:49.587Z,57.60
2019-04-22T01:16:23.921Z,58.00
2019-04-22T01:18:49.024Z,58.30
2019-04-22T01:21:28.764Z,58.50
2019-04-22T01:23:52.223Z,58.80
2019-04-22T01:26:21.541Z,59.10
2019-04-22T01:28:50.577Z,59.30
2019-04-22T01:31:17.188Z,58.90
2019-04-22T01:33:49.841Z,59.70
2019-04-22T01:36:32.965Z,59.90
2019-04-22T01:39:02.066Z,60.10
2019-04-22T01:41:48.821Z,60.30
2019-04-22T01:44:27.251Z,60.70
2019-04-22T01:46:45.119Z,60.80
2019-04-22T01:49:15.998Z,61.00
2019-04-22T01:54:26.669Z,61.30
2019-04-22T01:56:47.313Z,61.50
2019-04-22T01:59:11.926Z,61.50
2019-04-22T02:01:53.039Z,61.90
2019-04-22T02:04:30.223Z,62.10
2019-04-22T02:06:50.854Z,62.30
2019-04-22T02:09:31.581Z,62.70
2019-04-22T02:12:00.123Z,62.90
2019-04-22T02:14:27.585Z,63.20
2019-04-22T02:16:55.781Z,63.50
2019-04-22T02:19:30.288Z,63.70
2019-04-22T02:21:56.523Z,63.90
2019-04-22T02:24:33.860Z,64.20
2019-04-22T02:26:54.567Z,64.60
2019-04-22T02:29:37.312Z,64.90
2019-04-22T02:32:12.837Z,65.30
2019-04-22T02:34:40.270Z,65.60
2019-04-22T02:39:43.087Z,65.90
2019-04-22T02:42:10.794Z,66.10
2019-04-22T02:44:42.220Z,66.40
2019-04-22T02:47:15.649Z,66.60
2019-04-22T02:52:19.913Z,67.00
2019-04-22T02:54:49.068Z,67.30
2019-04-22T02:59:57.134Z,67.70
2019-04-22T03:02:23.477Z,67.70
2019-04-22T03:04:43.813Z,67.80
2019-04-22T03:07:16.457Z,67.90
2019-04-22T03:09:52.780Z,68.00
2019-04-22T03:14:56.293Z,68.40
2019-04-22T03:17:38.509Z,68.40
2019-04-22T03:19:59.091Z,68.60
2019-04-22T03:22:21.020Z,68.80
2019-04-22T03:27:21.976Z,69.20
2019-04-22T03:33:06.367Z,69.60
2019-04-22T03:35:30.411Z,69.80
2019-04-22T03:37:48.849Z,69.80
2019-04-22T03:42:52.051Z,70.00
2019-04-22T03:52:47.045Z,70.50
2019-04-22T03:55:49.040Z,70.50
2019-04-22T03:57:49.654Z,70.40
2019-04-22T04:02:54.257Z,71.10
2019-04-22T04:05:33.576Z,71.30
2019-04-22T04:20:36.502Z,71.80
2019-04-22T04:23:07.955Z,72.00
2019-04-22T04:30:31.760Z,72.10
2019-04-22T04:33:29.158Z,72.20
2019-04-22T04:35:54.484Z,72.00
2019-04-22T04:38:19.094Z,72.10
2019-04-22T04:40:46.109Z,72.20
2019-04-22T04:45:45.087Z,72.20
2019-04-22T04:48:26.804Z,72.30
2019-04-22T04:50:47.394Z,72.40
2019-04-22T04:55:57.937Z,72.70
2019-04-22T04:58:36.707Z,72.80
2019-04-22T05:03:32.937Z,72.90
2019-04-22T05:05:54.718Z,72.90
2019-04-22T05:08:39.114Z,72.90
2019-04-22T05:13:23.436Z,73.00
2019-04-22T05:16:14.837Z,72.90
2019-04-22T05:18:35.095Z,72.80
2019-04-22T05:23:30.064Z,72.50
2019-04-22T05:25:57.651Z,72.40
2019-04-22T05:28:23.705Z,72.10
2019-04-22T05:31:05.146Z,71.70
2019-04-22T05:33:32.318Z,71.50
2019-04-22T05:36:01.561Z,71.20
2019-04-22T05:38:37.912Z,70.80
2019-04-22T05:41:02.779Z,70.50
2019-04-22T05:43:34.468Z,70.10
2019-04-22T05:46:05.707Z,69.80
2019-04-22T05:48:41.069Z,69.60
2019-04-22T05:51:04.496Z,69.30
2019-04-22T05:53:37.646Z,69.00
2019-04-22T05:56:15.442Z,68.50
2019-04-22T05:58:39.701Z,68.00
2019-04-22T06:03:46.083Z,67.00
2019-04-22T06:06:15.048Z,66.30
2019-04-22T06:08:48.716Z,65.70
2019-04-22T06:13:46.620Z,64.70
2019-04-22T06:16:26.378Z,64.20
2019-04-22T06:18:58.299Z,63.70
2019-04-22T06:24:08.271Z,62.50
2019-04-22T06:26:40.615Z,62.00
2019-04-22T06:29:01.525Z,61.30
2019-04-22T06:36:37.424Z,59.70
2019-04-22T06:39:10.430Z,59.30
2019-04-22T06:41:45.834Z,59.30
2019-04-22T06:44:10.996Z,59.00
2019-04-22T06:46:43.335Z,58.80
2019-04-22T06:49:11.209Z,58.70
2019-04-22T06:51:37.732Z,58.60
2019-04-22T06:54:14.097Z,58.40
2019-04-22T06:56:42.714Z,58.30
2019-04-22T06:59:14.721Z,58.00
2019-04-22T07:01:50.934Z,57.80
2019-04-22T07:04:14.467Z,57.70
2019-04-22T07:06:49.914Z,57.40
2019-04-22T07:09:31.533Z,57.20
2019-04-22T07:11:50.013Z,56.90
2019-04-22T07:14:16.401Z,56.80
2019-04-22T07:16:54.468Z,56.60
2019-04-22T07:19:21.880Z,56.50
2019-04-22T07:21:50.935Z,56.50
2019-04-22T07:26:57.608Z,56.40
2019-04-22T07:29:29.711Z,56.20
2019-04-22T07:32:01.144Z,56.20
2019-04-22T07:34:33.358Z,55.70
2019-04-22T07:37:10.974Z,56.00
2019-04-22T07:39:35.470Z,55.00
2019-04-22T07:42:10.766Z,54.80
2019-04-22T07:47:13.786Z,54.40
2019-04-22T07:49:41.189Z,53.90
2019-04-22T07:52:03.633Z,53.60
2019-04-22T07:54:42.824Z,53.30
2019-04-22T07:57:16.485Z,52.70
2019-04-22T07:59:40.497Z,52.30
2019-04-22T08:02:12.784Z,51.80
2019-04-22T08:04:56.124Z,51.00
2019-04-22T08:07:18.077Z,49.30
2019-04-22T08:09:51.001Z,48.50
2019-04-22T08:12:16.671Z,47.90
2019-04-22T08:14:45.909Z,47.10
2019-04-22T08:17:53.291Z,47.00
2019-04-22T08:19:50.165Z,46.10
2019-04-22T08:22:24.098Z,45.40
2019-04-22T08:24:58.611Z,44.80
2019-04-22T08:27:25.210Z,43.70
2019-04-22T08:30:07.410Z,43.70
2019-04-22T08:32:28.505Z,42.60
2019-04-22T08:35:00.614Z,42.20
2019-04-22T08:40:09.537Z,41.30
2019-04-22T08:42:43.521Z,40.90
2019-04-22T08:45:09.603Z,40.50
2019-04-22T08:50:07.744Z,40.40
2019-04-22T08:52:38.506Z,40.20
2019-04-22T08:55:14.354Z,40.00
2019-04-22T08:58:03.233Z,39.90
2019-04-22T09:00:07.050Z,39.60
2019-04-22T09:05:22.800Z,38.70
2019-04-22T09:07:47.112Z,38.40
2019-04-22T09:10:17.260Z,38.00
2019-04-22T09:13:01.056Z,37.40
2019-04-22T09:15:20.600Z,36.90
2019-04-22T09:17:47.896Z,36.20
2019-04-22T09:20:23.385Z,35.40
2019-04-22T09:22:53.723Z,34.70
2019-04-22T09:25:16.950Z,34.90
2019-04-22T09:27:51.166Z,35.10
2019-04-22T09:30:27.774Z,35.10
2019-04-22T09:32:55.742Z,35.10
2019-04-22T09:35:25.125Z,34.80
2019-04-22T09:40:22.331Z,34.00
2019-04-22T09:42:56.391Z,33.40
2019-04-22T09:45:43.659Z,32.30
2019-04-22T09:48:00.930Z,31.00
2019-04-22T09:50:38.483Z,30.80
2019-04-22T09:53:02.090Z,30.80
2019-04-22T09:55:37.681Z,30.90
2019-04-22T09:58:07.207Z,30.90
2019-04-22T10:00:45.844Z,30.40
2019-04-22T10:03:16.743Z,30.50
2019-04-22T10:05:52.125Z,30.00
2019-04-22T10:08:24.514Z,29.90
2019-04-22T10:10:51.606Z,30.00
2019-04-22T10:13:18.743Z,29.50
2019-04-22T10:15:48.059Z,29.20
2019-04-22T10:18:17.872Z,28.90
2019-04-22T10:20:54.126Z,29.40
2019-04-22T10:23:25.013Z,28.90
2019-04-22T10:25:59.444Z,28.70
2019-04-22T10:28:35.582Z,28.50
2019-04-22T10:30:53.478Z,28.20
2019-04-22T10:33:22.412Z,28.20
2019-04-22T10:35:32.990Z,28.60
2019-04-22T10:38:03.941Z,28.30
2019-04-22T10:40:34.716Z,28.20
2019-04-22T10:43:07.704Z,27.80
2019-04-22T10:45:37.697Z,27.70
2019-04-22T10:48:08.497Z,28.30
2019-04-22T10:50:43.025Z,28.20
2019-04-22T10:53:13.578Z,28.40
2019-04-22T10:55:45.660Z,27.90
2019-04-22T10:58:16.948Z,27.60
2019-04-22T11:00:47.372Z,28.00
2019-04-22T11:03:18.074Z,27.80
2019-04-22T11:05:48.413Z,27.60
2019-04-22T11:08:27.280Z,27.90
2019-04-22T11:11:04.828Z,28.10
2019-04-22T11:13:22.234Z,28.30
2019-04-22T11:15:52.973Z,27.50
2019-04-22T11:18:23.209Z,27.00
2019-04-22T11:20:53.565Z,27.20
2019-04-22T11:23:22.945Z,26.90
2019-04-22T11:25:52.224Z,27.20
2019-04-22T11:28:21.533Z,27.30
2019-04-22T11:30:52.258Z,27.50
2019-04-22T11:33:22.526Z,27.00
2019-04-22T11:35:52.156Z,26.90
2019-04-22T11:38:22.684Z,26.80
2019-04-22T11:40:54.377Z,26.50
2019-04-22T11:43:24.172Z,26.70
2019-04-22T11:45:55.321Z,26.50
2019-04-22T11:48:24.652Z,26.80
2019-04-22T11:50:53.920Z,26.50
2019-04-22T11:53:24.722Z,26.50
2019-04-22T11:55:55.062Z,26.40
2019-04-22T11:58:24.705Z,26.30
2019-04-22T12:00:55.458Z,26.20
2019-04-22T12:03:27.177Z,26.20
2019-04-22T12:05:57.794Z,26.10
2019-04-22T12:08:27.212Z,26.00
2019-04-22T12:11:00.065Z,25.90
2019-04-22T12:13:28.266Z,25.10
2019-04-22T12:15:58.852Z,24.70
2019-04-22T12:18:29.150Z,24.60
2019-04-22T12:20:59.205Z,24.10
2019-04-22T12:23:29.408Z,24.30
2019-04-22T12:26:04.264Z,24.40
2019-04-22T12:28:31.080Z,24.20
2019-04-22T12:31:01.660Z,24.00
2019-04-22T12:33:31.646Z,24.00
2019-04-22T12:36:02.282Z,23.40
2019-04-22T12:38:31.671Z,22.40
2019-04-22T12:41:05.823Z,22.90
2019-04-22T12:43:33.347Z,22.90
2019-04-22T12:46:02.857Z,22.90
2019-04-22T12:48:32.862Z,23.00
2019-04-22T12:51:02.942Z,23.20
2019-04-22T12:53:33.620Z,23.70
2019-04-22T12:56:03.193Z,23.80
2019-04-22T12:58:33.756Z,23.70
2019-04-22T13:01:03.383Z,23.30
2019-04-22T13:03:34.024Z,22.70
2019-04-22T13:06:05.913Z,22.50
2019-04-22T13:08:35.795Z,22.60
2019-04-22T13:11:11.986Z,22.10
2019-04-22T13:13:36.827Z,21.90
2019-04-22T13:16:07.011Z,21.60
2019-04-22T13:18:42.041Z,21.40
2019-04-22T13:21:08.597Z,21.60
2019-04-22T13:23:39.027Z,21.20
2019-04-22T13:26:08.414Z,21.00
2019-04-22T13:28:38.871Z,20.80
2019-04-22T13:31:09.681Z,20.90
2019-04-22T13:33:39.097Z,20.60
2019-04-22T13:36:08.375Z,20.60
2019-04-22T13:38:39.026Z,20.90
2019-04-22T13:41:21.284Z,20.60
2019-04-22T13:43:39.657Z,20.90
2019-04-22T13:46:10.240Z,21.10
2019-04-22T13:49:13.185Z,20.90
2019-04-22T13:51:52.139Z,20.60
2019-04-22T13:54:42.350Z,20.20
2019-04-22T13:56:30.396Z,20.30
2019-04-22T13:58:55.292Z,20.60
2019-04-22T14:01:20.553Z,19.60
2019-04-22T14:03:54.643Z,19.70
2019-04-22T14:06:25.062Z,19.50
2019-04-22T14:08:55.685Z,19.40
2019-04-22T14:11:34.571Z,19.30
2019-04-22T14:13:56.732Z,19.30
2019-04-22T14:16:27.015Z,19.70
2019-04-22T14:18:57.991Z,19.80
2019-04-22T14:21:27.416Z,19.80
2019-04-22T14:23:56.681Z,19.60
2019-04-22T14:26:27.229Z,19.20
2019-04-22T14:28:59.832Z,19.10
2019-04-22T14:31:30.586Z,19.30
2019-04-22T14:34:04.987Z,19.30
2019-04-22T14:36:31.046Z,18.60
2019-04-22T14:39:01.909Z,18.70
2019-04-22T14:41:49.766Z,19.00
2019-04-22T14:45:07.174Z,19.00
2019-04-22T14:47:05.566Z,19.00
2019-04-22T14:49:31.456Z,19.20
2019-04-22T14:51:56.039Z,18.60
2019-04-22T14:54:24.242Z,18.40
2019-04-22T14:56:40.412Z,18.20
2019-04-22T14:59:11.289Z,18.50
2019-04-22T15:01:41.572Z,18.70
2019-04-22T15:04:10.991Z,18.70
2019-04-22T15:06:43.114Z,18.80
2019-04-22T15:09:12.197Z,19.10
2019-04-22T15:11:50.749Z,19.30
2019-04-22T15:14:12.633Z,19.30
2019-04-22T15:16:49.024Z,19.20
2019-04-22T15:19:25.687Z,19.00
2019-04-22T15:21:56.633Z,19.10
2019-04-22T15:24:27.563Z,19.10
2019-04-22T15:26:58.565Z,19.40
2019-04-22T15:29:29.415Z,19.40
2019-04-22T15:31:59.943Z,19.50
2019-04-22T15:34:30.656Z,20.00
2019-04-22T15:37:00.174Z,19.80
2019-04-22T15:39:29.529Z,19.50
2019-04-22T15:42:11.341Z,19.50
2019-04-22T15:44:30.741Z,19.30
2019-04-22T15:47:00.915Z,20.00
2019-04-22T15:49:31.892Z,19.30
2019-04-22T15:52:02.981Z,19.30
2019-04-22T15:54:33.976Z,19.50
2019-04-22T15:57:04.763Z,19.40
2019-04-22T15:59:52.645Z,19.30
2019-04-22T16:02:08.317Z,19.60
2019-04-22T16:04:38.785Z,19.80
2019-04-22T16:07:08.597Z,19.80
2019-04-22T16:09:39.372Z,19.90
2019-04-22T16:12:18.591Z,19.80
2019-04-22T16:14:45.438Z,19.70
2019-04-22T16:17:10.709Z,19.90
2019-04-22T16:19:41.171Z,20.00
2019-04-22T16:22:17.092Z,20.00
2019-04-22T16:24:56.272Z,20.20
2019-04-22T16:27:27.338Z,20.20
2019-04-22T16:29:57.152Z,20.40
2019-04-22T16:32:27.838Z,20.80
2019-04-22T16:34:58.688Z,20.70
2019-04-22T16:37:28.529Z,20.90
2019-04-22T16:39:58.899Z,21.10
2019-04-22T16:42:37.842Z,21.40
2019-04-22T16:44:59.641Z,21.80
2019-04-22T16:47:28.923Z,21.90
2019-04-22T16:49:59.496Z,21.90
2019-04-22T16:52:30.145Z,22.00
2019-04-22T16:55:00.889Z,22.00
2019-04-22T16:57:30.281Z,22.10
2019-04-22T17:00:00.448Z,22.20
2019-04-22T17:02:41.725Z,22.40
2019-04-22T17:05:18.034Z,22.70
2019-04-22T17:07:48.076Z,22.80
2019-04-22T17:10:17.835Z,22.90
2019-04-22T17:12:56.352Z,23.10
2019-04-22T17:15:20.741Z,23.20
2019-04-22T17:17:51.497Z,23.30
2019-04-22T17:20:21.081Z,23.50
2019-04-22T17:22:51.467Z,23.70
2019-04-22T17:25:22.367Z,23.90
2019-04-22T17:27:52.030Z,24.10
2019-04-22T17:30:22.272Z,24.40
2019-04-22T17:32:52.464Z,24.60
2019-04-22T17:35:22.133Z,24.70
2019-04-22T17:38:03.066Z,24.90
2019-04-22T17:40:40.856Z,25.20
2019-04-22T17:43:28.477Z,25.30
2019-04-22T17:45:56.030Z,25.50
2019-04-22T17:48:30.388Z,25.70
2019-04-22T17:51:14.532Z,26.00
2019-04-22T17:53:42.575Z,26.10
2019-04-22T17:56:09.684Z,26.20
2019-04-22T17:58:43.111Z,26.20
2019-04-22T18:01:10.732Z,26.40
2019-04-22T18:03:28.541Z,26.50
2019-04-22T18:05:58.225Z,26.60
2019-04-22T18:08:44.241Z,26.70
2019-04-22T18:11:24.288Z,26.90
2019-04-22T18:13:44.603Z,27.10
2019-04-22T18:16:18.125Z,27.20
2019-04-22T18:18:47.634Z,27.30
2019-04-22T18:21:15.709Z,27.50
2019-04-22T18:23:36.104Z,27.70
2019-04-22T18:26:17.081Z,27.80
2019-04-22T18:28:55.912Z,28.10
2019-04-22T18:31:15.758Z,28.20
2019-04-22T18:33:47.872Z,28.30
2019-04-22T18:36:21.268Z,28.30
2019-04-22T18:38:58.493Z,28.30
2019-04-22T18:41:23.703Z,28.30
2019-04-22T18:47:10.719Z,28.50
2019-04-22T18:49:38.671Z,28.60
2019-04-22T18:52:19.576Z,28.70
2019-04-22T18:54:53.508Z,28.80
2019-04-22T18:57:25.643Z,28.90
2019-04-22T18:59:43.273Z,29.00
2019-04-22T19:02:14.214Z,29.10
2019-04-22T19:04:53.930Z,29.20
2019-04-22T19:07:44.287Z,29.30
2019-04-22T19:10:09.615Z,29.40
2019-04-22T19:12:47.056Z,29.60
2019-04-22T19:15:09.374Z,29.80
2019-04-22T19:17:46.285Z,29.90
2019-04-22T19:20:16.970Z,30.00
2019-04-22T19:22:43.775Z,30.00
2019-04-22T19:25:05.927Z,30.00
2019-04-22T19:27:42.173Z,30.00
2019-04-22T19:30:16.453Z,30.00
2019-04-22T19:32:45.176Z,30.10
2019-04-22T19:35:14.071Z,30.10
2019-04-22T19:37:44.209Z,30.20
2019-04-22T19:40:30.339Z,30.30
2019-04-22T19:42:58.023Z,30.40
2019-04-22T19:45:16.031Z,30.50
2019-04-22T19:47:59.896Z,30.60
2019-04-22T19:50:22.742Z,30.70
2019-04-22T19:52:50.315Z,30.80
2019-04-22T19:55:23.805Z,31.00
2019-04-22T19:57:52.324Z,31.10
2019-04-22T20:00:37.388Z,31.00
2019-04-22T20:03:37.750Z,30.90
2019-04-22T20:06:18.105Z,31.00
2019-04-22T20:08:50.987Z,31.20
2019-04-22T20:11:22.652Z,31.20
2019-04-22T20:13:51.349Z,31.30
2019-04-22T20:16:08.585Z,31.60
2019-04-22T20:18:56.968Z,31.60
2019-04-22T20:21:24.005Z,31.80
2019-04-22T20:23:45.295Z,31.80
2019-04-22T20:26:17.895Z,32.00
2019-04-22T20:28:55.882Z,32.20
2019-04-22T20:31:26.616Z,32.30
2019-04-22T20:34:03.540Z,32.30
2019-04-22T20:38:58.787Z,33.00
2019-04-22T20:41:24.949Z,32.50
2019-04-22T20:44:08.007Z,32.30
2019-04-22T20:46:31.322Z,32.30
2019-04-22T20:49:04.921Z,32.30
2019-04-22T20:51:48.750Z,32.40
2019-04-22T20:54:08.873Z,32.40
2019-04-22T20:56:33.771Z,32.50
2019-04-22T20:59:08.696Z,32.60
2019-04-22T21:01:41.434Z,32.70
2019-04-22T21:03:57.638Z,32.80
2019-04-22T21:06:36.943Z,32.90
2019-04-22T21:09:12.089Z,33.00
2019-04-22T21:11:40.888Z,33.20
2019-04-22T21:14:12.244Z,33.30
2019-04-22T21:16:43.396Z,33.30
2019-04-22T21:19:21.682Z,33.40
2019-04-22T21:21:54.737Z,33.40
2019-04-22T21:24:19.646Z,33.50
2019-04-22T21:26:43.730Z,33.60
2019-04-22T21:29:15.893Z,33.70
2019-04-22T21:31:51.286Z,33.70
2019-04-22T21:34:22.263Z,33.90
2019-04-22T21:36:57.466Z,34.00
2019-04-22T21:39:23.099Z,34.10
2019-04-22T21:41:56.658Z,34.20
2019-04-22T21:44:26.905Z,34.50
2019-04-22T21:47:08.652Z,34.60
2019-04-22T21:49:35.560Z,34.80
2019-04-22T21:52:01.630Z,34.90
2019-04-22T21:54:31.566Z,35.10
2019-04-22T21:57:26.529Z,35.20
2019-04-22T21:59:38.483Z,36.10
2019-04-22T22:02:12.296Z,35.70
2019-04-22T22:04:38.441Z,36.50
2019-04-22T22:06:59.890Z,36.10
2019-04-22T22:09:43.979Z,36.20
2019-04-22T22:12:14.810Z,36.40
2019-04-22T22:14:46.373Z,36.70
2019-04-22T22:17:18.826Z,36.90
2019-04-22T22:19:48.526Z,37.00
2019-04-22T22:22:40.137Z,37.30
2019-04-22T22:24:50.154Z,37.40
2019-04-22T22:27:19.006Z,37.70
2019-04-22T22:32:27.447Z,37.90
2019-04-22T22:35:00.527Z,38.10
2019-04-22T22:37:15.884Z,38.20
2019-04-22T22:39:44.897Z,38.70
2019-04-22T22:42:10.908Z,38.70
2019-04-22T22:44:44.860Z,38.70
2019-04-22T22:47:34.238Z,38.80
2019-04-22T22:50:03.037Z,39.00
2019-04-22T22:55:03.849Z,39.30
2019-04-22T23:00:04.526Z,39.50
2019-04-22T23:02:36.879Z,39.50
2019-04-22T23:05:09.669Z,39.50
2019-04-22T23:07:40.950Z,39.70
2019-04-22T23:10:14.531Z,39.60
2019-04-22T23:13:00.482Z,39.80
2019-04-22T23:15:12.373Z,39.80
2019-04-22T23:17:26.213Z,39.80
2019-04-22T23:19:56.014Z,40.00
2019-04-22T23:22:35.643Z,40.00
2019-04-22T23:25:24.787Z,40.10
2019-04-22T23:27:52.580Z,40.00
2019-04-22T23:30:25.458Z,40.20
2019-04-22T23:33:07.800Z,40.20
2019-04-22T23:35:36.363Z,40.30
2019-04-22T23:38:07.813Z,40.40
2019-04-22T23:40:42.888Z,40.60
2019-04-22T23:43:26.382Z,40.60
2019-04-22T23:45:51.978Z,40.70
2019-04-22T23:48:14.144Z,40.90
2019-04-22T23:50:57.347Z,41.10
2019-04-22T23:53:45.195Z,41.10
2019-04-22T23:56:01.258Z,41.10
2019-04-22T23:58:49.263Z,41.20
